Time;durP1;ratioP1;P1;durP2;ratioP2;P2;SDS_P1;SDS_P2;PMS_P1;PMS_P2;Temp;Humidity;BMP_temperature;BMP_pressure;BME280_temperature;BME280_humidity;BME280_pressure;Samples;Min_cycle;Max_cycle;Signal;HPM_P1;HPM_P2
2022/08/22 00:01:15;;;;;;;;;;;;;;;;;;5078953;28;19912;-77
2022/08/22 00:03:51;;;;;;;;;;;;;;;;;;5078674;28;19919;-77
2022/08/22 00:06:23;;;;;;;;;;;;;;;;;;5078583;28;19912;-77
2022/08/22 00:08:51;;;;;;;;;;;;;;;;;;5078410;28;19912;-78
2022/08/22 00:11:35;;;;;;;;;;;;;;;;;;5078670;28;19916;-77
2022/08/22 00:14:19;;;;;;;;;;;;;;;;;;5095833;28;19920;-78
2022/08/22 00:16:53;;;;;;;;;;;;;;;;;;5096472;28;19919;-78
2022/08/22 00:19:25;;;;;;;;;;;;;;;;;;5061580;28;20001;-76
2022/08/22 00:21:52;;;;;;;;;;;;;;;;;;5096362;28;20344;-78
2022/08/22 00:24:17;;;;;;;;;;;;;;;;;;5078228;28;19970;-78
2022/08/22 00:26:45;;;;;;;;;;;;;;;;;;5096574;28;19958;-78
2022/08/22 00:29:11;;;;;;;;;;;;;;;;;;5078579;28;19912;-78
2022/08/22 00:31:42;;;;;;;;;;;;;;;;;;5078940;28;20298;-78
2022/08/22 00:34:11;;;;;;;;;;;;;;;;;;5061253;28;20003;-78
2022/08/22 00:36:54;;;;;;;;;;;;;;;;;;5096070;28;19912;-78
2022/08/22 00:39:21;;;;;;;;;;;;;;;;;;5096248;28;19918;-78
2022/08/22 00:41:47;;;;;;;;;;;;;;;;;;5077867;28;20007;-78
2022/08/22 00:44:31;;;;;;;;;;;;;;;;;;5096096;28;19986;-78
2022/08/22 00:46:56;;;;;;;;;;;;;;;;;;5095790;28;19916;-78
2022/08/22 00:49:21;;;;;;;;;;;;;;;;;;5070889;28;20354;-77
2022/08/22 00:51:56;;;;;;;;;;;;;;;;;;5057589;28;19956;-78
2022/08/22 00:54:33;;;;;;;;;;;;;;;;;;5075469;28;20015;-78
2022/08/22 00:57:15;;;;;;;;;;;;;;;;;;5040783;28;20380;-78
2022/08/22 00:59:46;;;;;;;;;;;;;;;;;;5057457;28;19958;-78
2022/08/22 01:02:30;;;;;;;;;;;;;;;;;;5075682;28;19913;-78
2022/08/22 01:05:04;;;;;;;;;;;;;;;;;;5057990;28;19913;-77
2022/08/22 01:07:38;;;;;;;;;;;;;;;;;;5057389;28;19958;-78
2022/08/22 01:10:13;;;;;;;;;;;;;;;;;;5075183;28;20282;-78
2022/08/22 01:12:50;;;;;;;;;;;;;;;;;;5057226;28;19912;-78
2022/08/22 01:15:18;;;;;;;;;;;;;;;;;;5075549;28;19959;-78
2022/08/22 01:17:44;;;;;;;;;;;;;;;;;;5057412;28;19912;-78
2022/08/22 01:20:28;;;;;;;;;;;;;;;;;;5075121;28;20289;-78
2022/08/22 01:23:12;;;;;;;;;;;;;;;;;;5074913;28;19919;-78
2022/08/22 01:25:55;;;;;;;;;;;;;;;;;;5075069;28;19977;-78
2022/08/22 01:28:26;;;;;;;;;;;;;;;;;;5074719;28;19939;-77
2022/08/22 01:30:54;;;;;;;;;;;;;;;;;;5075058;28;20346;-78
2022/08/22 01:33:38;;;;;;;;;;;;;;;;;;5074648;28;20295;-78
2022/08/22 01:36:18;;;;;;;;;;;;;;;;;;5056821;28;20354;-78
2022/08/22 01:38:54;;;;;;;;;;;;;;;;;;5056606;28;19912;-77
2022/08/22 01:41:35;;;;;;;;;;;;;;;;;;5056915;28;19962;-78
2022/08/22 01:44:19;;;;;;;;;;;;;;;;;;5056810;28;19921;-78
2022/08/22 01:46:47;;;;;;;;;;;;;;;;;;5056533;28;19912;-77
2022/08/22 01:49:24;;;;;;;;;;;;;;;;;;5079864;28;20366;-78
2022/08/22 01:51:54;;;;;;;;;;;;;;;;;;5076511;28;19916;-78
2022/08/22 01:54:22;;;;;;;;;;;;;;;;;;5076838;28;20365;-78
2022/08/22 01:56:48;;;;;;;;;;;;;;;;;;5094670;28;20479;-78
2022/08/22 01:59:19;;;;;;;;;;;;;;;;;;5076422;28;19918;-78
2022/08/22 02:01:44;;;;;;;;;;;;;;;;;;5094759;28;19912;-78
2022/08/22 02:04:28;;;;;;;;;;;;;;;;;;5076284;28;19912;-78
2022/08/22 02:07:01;;;;;;;;;;;;;;;;;;5094345;28;19912;-78
2022/08/22 02:09:47;;;;;;;;;;;;;;;;;;5076120;28;20488;-78
2022/08/22 02:12:20;;;;;;;;;;;;;;;;;;5076189;28;19912;-78
2022/08/22 02:15:06;;;;;;;;;;;;;;;;;;5076320;28;19974;-78
2022/08/22 02:17:34;;;;;;;;;;;;;;;;;;5075357;28;19912;-78
2022/08/22 02:20:06;;;;;;;;;;;;;;;;;;5076516;28;19920;-78
2022/08/22 02:22:34;;;;;;;;;;;;;;;;;;5094323;28;19919;-78
2022/08/22 02:25:03;;;;;;;;;;;;;;;;;;5076604;28;19916;-78
2022/08/22 02:27:31;;;;;;;;;;;;;;;;;;5076263;28;19920;-78
2022/08/22 02:30:03;;;;;;;;;;;;;;;;;;5094011;28;20046;-77
2022/08/22 02:32:37;;;;;;;;;;;;;;;;;;5093873;28;19912;-77
2022/08/22 02:35:11;;;;;;;;;;;;;;;;;;5094027;28;19930;-78
2022/08/22 02:38:02;;;;;;;;;;;;;;;;;;5075410;28;19962;-78
2022/08/22 02:40:36;;;;;;;;;;;;;;;;;;5062604;28;19912;-78
2022/08/22 02:43:07;;;;;;;;;;;;;;;;;;5075559;28;19919;-78
2022/08/22 02:45:40;;;;;;;;;;;;;;;;;;5093686;28;19912;-78
2022/08/22 02:48:18;;;;;;;;;;;;;;;;;;5058872;28;19924;-78
2022/08/22 02:50:51;;;;;;;;;;;;;;;;;;5093751;28;19920;-78
2022/08/22 02:53:19;;;;;;;;;;;;;;;;;;5094195;28;19919;-77
2022/08/22 02:55:48;;;;;;;;;;;;;;;;;;5075709;28;19912;-77
2022/08/22 02:58:23;;;;;;;;;;;;;;;;;;5076213;28;19943;-78
2022/08/22 03:00:51;;;;;;;;;;;;;;;;;;5075748;28;19919;-78
2022/08/22 03:03:21;;;;;;;;;;;;;;;;;;5058808;28;20367;-78
2022/08/22 03:06:04;;;;;;;;;;;;;;;;;;5058739;28;20397;-78
2022/08/22 03:08:33;;;;;;;;;;;;;;;;;;5093529;28;19916;-77
2022/08/22 03:10:59;;;;;;;;;;;;;;;;;;5093870;28;19913;-78
2022/08/22 03:13:43;;;;;;;;;;;;;;;;;;5075206;28;20337;-78
2022/08/22 03:16:21;;;;;;;;;;;;;;;;;;5075232;28;20294;-78
2022/08/22 03:19:02;;;;;;;;;;;;;;;;;;5058617;28;19919;-77
2022/08/22 03:21:27;;;;;;;;;;;;;;;;;;5093388;28;20003;-76
2022/08/22 03:23:59;;;;;;;;;;;;;;;;;;5093568;28;19947;-77
2022/08/22 03:26:44;;;;;;;;;;;;;;;;;;5058546;28;20335;-78
2022/08/22 03:29:20;;;;;;;;;;;;;;;;;;5079009;28;20381;-78
2022/08/22 03:32:04;;;;;;;;;;;;;;;;;;5075280;28;20255;-77
2022/08/22 03:34:29;;;;;;;;;;;;;;;;;;5075085;28;19916;-78
2022/08/22 03:36:57;;;;;;;;;;;;;;;;;;5093330;28;19923;-78
2022/08/22 03:39:34;;;;;;;;;;;;;;;;;;5075792;28;20011;-78
2022/08/22 03:42:09;;;;;;;;;;;;;;;;;;5075424;28;19989;-78
2022/08/22 03:44:37;;;;;;;;;;;;;;;;;;5075148;28;19927;-78
2022/08/22 03:47:24;;;;;;;;;;;;;;;;;;5093397;28;19955;-78
2022/08/22 03:49:59;;;;;;;;;;;;;;;;;;5065791;28;19927;-78
2022/08/22 03:52:30;;;;;;;;;;;;;;;;;;5058661;28;20297;-78
2022/08/22 03:55:14;;;;;;;;;;;;;;;;;;5076639;28;19919;-78
2022/08/22 03:57:43;;;;;;;;;;;;;;;;;;5076593;28;19916;-77
2022/08/22 04:00:17;;;;;;;;;;;;;;;;;;5058769;28;19912;-78
2022/08/22 04:02:48;;;;;;;;;;;;;;;;;;5058537;28;19978;-77
2022/08/22 04:05:19;;;;;;;;;;;;;;;;;;5058556;28;19912;-78
2022/08/22 04:07:50;;;;;;;;;;;;;;;;;;5076547;28;19970;-77
2022/08/22 04:10:24;;;;;;;;;;;;;;;;;;5058384;28;19919;-77
2022/08/22 04:12:49;;;;;;;;;;;;;;;;;;5041695;28;19916;-78
2022/08/22 04:15:17;;;;;;;;;;;;;;;;;;5076609;28;19927;-81
2022/08/22 04:17:42;;;;;;;;;;;;;;;;;;5076188;28;19913;-79
2022/08/22 04:20:11;;;;;;;;;;;;;;;;;;5058271;28;19913;-80
2022/08/22 04:22:55;;;;;;;;;;;;;;;;;;5058676;28;19913;-79
2022/08/22 04:25:22;;;;;;;;;;;;;;;;;;5075950;28;19912;-79
2022/08/22 04:27:56;;;;;;;;;;;;;;;;;;5076365;28;19921;-80
2022/08/22 04:30:27;;;;;;;;;;;;;;;;;;5076293;28;20005;-81
2022/08/22 04:33:06;;;;;;;;;;;;;;;;;;5058014;28;19920;-79
2022/08/22 04:35:33;;;;;;;;;;;;;;;;;;5057829;28;19966;-79
2022/08/22 04:38:21;;;;;;;;;;;;;;;;;;5058038;28;19927;-79
2022/08/22 04:40:49;;;;;;;;;;;;;;;;;;5064677;28;19912;-79
2022/08/22 04:43:33;;;;;;;;;;;;;;;;;;5065175;28;19928;-78
2022/08/22 04:46:16;;;;;;;;;;;;;;;;;;5081730;28;19916;-79
2022/08/22 04:49:00;;;;;;;;;;;;;;;;;;5076058;28;20005;-79
2022/08/22 04:51:35;;;;;;;;;;;;;;;;;;5077468;28;19916;-83
2022/08/22 04:54:06;;;;;;;;;;;;;;;;;;5095560;28;19919;-81
2022/08/22 04:56:36;;;;;;;;;;;;;;;;;;5095387;28;19919;-81
2022/08/22 04:59:11;;;;;;;;;;;;;;;;;;5077222;28;19912;-79
2022/08/22 05:01:37;;;;;;;;;;;;;;;;;;5077103;28;20283;-78
2022/08/22 05:04:07;;;;;;;;;;;;;;;;;;5076957;28;19912;-78
2022/08/22 05:06:33;;;;;;;;;;;;;;;;;;5060191;28;19912;-78
2022/08/22 05:09:00;;;;;;;;;;;;;;;;;;5077219;28;20332;-80
2022/08/22 05:11:25;;;;;;;;;;;;;;;;;;5060569;28;19916;-79
2022/08/22 05:13:54;;;;;;;;;;;;;;;;;;5077137;28;19927;-79
2022/08/22 05:16:21;;;;;;;;;;;;;;;;;;5077199;28;19923;-79
2022/08/22 05:18:52;;;;;;;;;;;;;;;;;;5077027;28;19912;-79
2022/08/22 05:21:19;;;;;;;;;;;;;;;;;;5077375;28;20397;-78
2022/08/22 05:23:53;;;;;;;;;;;;;;;;;;5096878;28;19919;-78
2022/08/22 05:26:18;;;;;;;;;;;;;;;;;;5059939;28;19912;-78
2022/08/22 05:28:45;;;;;;;;;;;;;;;;;;5076717;28;19923;-78
2022/08/22 05:31:12;;;;;;;;;;;;;;;;;;5076849;28;19992;-78
2022/08/22 05:33:45;;;;;;;;;;;;;;;;;;5059603;28;20335;-78
2022/08/22 05:36:12;;;;;;;;;;;;;;;;;;5077122;28;20341;-79
2022/08/22 05:38:43;;;;;;;;;;;;;;;;;;5076669;28;19913;-79
2022/08/22 05:41:09;;;;;;;;;;;;;;;;;;5076601;28;20003;-76
2022/08/22 05:43:38;;;;;;;;;;;;;;;;;;5094671;28;20394;-79
2022/08/22 05:46:05;;;;;;;;;;;;;;;;;;5076788;28;19984;-79
2022/08/22 05:48:35;;;;;;;;;;;;;;;;;;5060136;28;20278;-76
2022/08/22 05:51:14;;;;;;;;;;;;;;;;;;5076532;28;20271;-79
2022/08/22 05:53:40;;;;;;;;;;;;;;;;;;5076684;28;19916;-77
2022/08/22 05:56:15;;;;;;;;;;;;;;;;;;5094125;28;19912;-77
2022/08/22 05:58:48;;;;;;;;;;;;;;;;;;5076403;28;19974;-77
2022/08/22 06:01:22;;;;;;;;;;;;;;;;;;5059250;28;20254;-77
2022/08/22 06:04:04;;;;;;;;;;;;;;;;;;5076405;28;19920;-77
2022/08/22 06:06:30;;;;;;;;;;;;;;;;;;5094295;28;19916;-78
2022/08/22 06:09:02;;;;;;;;;;;;;;;;;;5059062;28;19916;-78
2022/08/22 06:12:02;;;;;;;;;;;;;;;;;;5093798;28;19918;-78
2022/08/22 06:14:28;;;;;;;;;;;;;;;;;;5011908;28;19972;-78
2022/08/22 06:16:58;;;;;;;;;;;;;;;;;;5013472;28;19917;-78
2022/08/22 06:19:24;;;;;;;;;;;;;;;;;;4996096;28;19998;-78
2022/08/22 06:21:49;;;;;;;;;;;;;;;;;;4996418;28;19948;-78
2022/08/22 06:24:17;;;;;;;;;;;;;;;;;;4997221;28;19961;-76
2022/08/22 06:26:43;;;;;;;;;;;;;;;;;;4981062;28;19962;-79
2022/08/22 06:29:08;;;;;;;;;;;;;;;;;;4997090;28;20060;-78
2022/08/22 06:31:40;;;;;;;;;;;;;;;;;;4980381;28;19989;-79
2022/08/22 06:34:05;;;;;;;;;;;;;;;;;;4995926;28;19922;-77
2022/08/22 06:36:32;;;;;;;;;;;;;;;;;;5012693;28;19918;-79
2022/08/22 06:39:17;;;;;;;;;;;;;;;;;;4995896;28;19926;-79
2022/08/22 06:41:48;;;;;;;;;;;;;;;;;;5012220;28;20372;-79
2022/08/22 06:44:14;;;;;;;;;;;;;;;;;;5012641;28;19967;-79
2022/08/22 06:46:40;;;;;;;;;;;;;;;;;;4995932;28;19947;-79
2022/08/22 06:49:06;;;;;;;;;;;;;;;;;;5075715;28;20370;-78
2022/08/22 06:51:31;;;;;;;;;;;;;;;;;;5075866;28;19973;-78
2022/08/22 06:53:58;;;;;;;;;;;;;;;;;;5092496;28;19916;-78
2022/08/22 06:56:24;;;;;;;;;;;;;;;;;;5075443;28;19912;-78
2022/08/22 06:58:50;;;;;;;;;;;;;;;;;;5058781;28;19920;-78
2022/08/22 07:01:26;;;;;;;;;;;;;;;;;;5076044;28;19917;-78
2022/08/22 07:03:52;;;;;;;;;;;;;;;;;;5076253;28;19966;-78
2022/08/22 07:06:20;;;;;;;;;;;;;;;;;;5093995;28;19955;-78
2022/08/22 07:08:45;;;;;;;;;;;;;;;;;;5076123;28;19920;-78
2022/08/22 07:11:20;;;;;;;;;;;;;;;;;;5077503;28;19912;-78
2022/08/22 07:13:56;;;;;;;;;;;;;;;;;;5076922;28;19985;-78
2022/08/22 07:16:29;;;;;;;;;;;;;;;;;;5093527;28;20290;-78
2022/08/22 07:18:54;;;;;;;;;;;;;;;;;;5059236;28;19912;-78
2022/08/22 07:21:29;;;;;;;;;;;;;;;;;;5094918;28;19934;-78
2022/08/22 07:23:55;;;;;;;;;;;;;;;;;;5061669;28;19912;-78
2022/08/22 07:26:30;;;;;;;;;;;;;;;;;;5080283;28;19916;-78
2022/08/22 07:28:57;;;;;;;;;;;;;;;;;;5081085;28;19916;-78
2022/08/22 07:31:26;;;;;;;;;;;;;;;;;;5080941;28;19923;-78
2022/08/22 07:33:53;;;;;;;;;;;;;;;;;;5080896;28;19919;-78
2022/08/22 07:36:20;;;;;;;;;;;;;;;;;;5080174;28;19923;-78
2022/08/22 07:38:46;;;;;;;;;;;;;;;;;;5062764;28;19912;-78
2022/08/22 07:41:13;;;;;;;;;;;;;;;;;;5080508;28;19912;-78
2022/08/22 07:43:41;;;;;;;;;;;;;;;;;;5063323;28;20167;-78
2022/08/22 07:46:17;;;;;;;;;;;;;;;;;;5078968;28;20325;-78
2022/08/22 07:48:48;;;;;;;;;;;;;;;;;;5078564;28;20007;-78
2022/08/22 07:51:14;;;;;;;;;;;;;;;;;;5079952;28;20339;-78
2022/08/22 07:53:39;;;;;;;;;;;;;;;;;;5078388;28;19939;-78
2022/08/22 07:56:05;;;;;;;;;;;;;;;;;;5078146;28;20331;-78
2022/08/22 07:58:34;;;;;;;;;;;;;;;;;;5077921;28;21803;-78
2022/08/22 08:00:59;;;;;;;;;;;;;;;;;;5078616;28;20277;-78
2022/08/22 08:03:25;;;;;;;;;;;;;;;;;;5096969;28;20007;-78
2022/08/22 08:05:50;;;;;;;;;;;;;;;;;;5062189;28;20003;-78
2022/08/22 08:08:26;;;;;;;;;;;;;;;;;;5096854;28;20339;-78
2022/08/22 08:10:53;;;;;;;;;;;;;;;;;;5078399;28;20362;-79
2022/08/22 08:13:29;;;;;;;;;;;;;;;;;;5061444;28;19919;-79
2022/08/22 08:15:54;;;;;;;;;;;;;;;;;;5061001;28;19923;-78
2022/08/22 08:18:22;;;;;;;;;;;;;;;;;;5078481;28;20286;-78
2022/08/22 08:20:51;;;;;;;;;;;;;;;;;;5078839;28;20427;-78
2022/08/22 08:23:18;;;;;;;;;;;;;;;;;;5079640;28;19912;-78
2022/08/22 08:26:07;;;;;;;;;;;;;;;;;;5078649;28;19916;-79
2022/08/22 08:28:35;;;;;;;;;;;;;;;;;;5084595;28;19923;-78
2022/08/22 08:31:07;;;;;;;;;;;;;;;;;;5077936;28;20281;-78
2022/08/22 08:33:34;;;;;;;;;;;;;;;;;;5077830;28;19912;-76
2022/08/22 08:36:01;;;;;;;;;;;;;;;;;;5077425;28;19920;-77
2022/08/22 08:38:29;;;;;;;;;;;;;;;;;;5061122;28;19912;-76
2022/08/22 08:41:01;;;;;;;;;;;;;;;;;;5078070;28;19912;-79
2022/08/22 08:43:37;;;;;;;;;;;;;;;;;;5095937;28;19923;-77
2022/08/22 08:46:11;;;;;;;;;;;;;;;;;;5095793;28;19939;-78
2022/08/22 08:48:55;;;;;;;;;;;;;;;;;;5077518;28;19938;-78
2022/08/22 08:51:23;;;;;;;;;;;;;;;;;;5079192;28;19920;-76
2022/08/22 08:54:08;;;;;;;;;;;;;;;;;;5096322;28;20011;-77
2022/08/22 08:56:39;;;;;;;;;;;;;;;;;;5095558;28;19951;-77
2022/08/22 08:59:12;;;;;;;;;;;;;;;;;;5095588;28;19912;-77
2022/08/22 09:01:46;;;;;;;;;;;;;;;;;;5078187;28;19912;-77
2022/08/22 09:04:18;;;;;;;;;;;;;;;;;;5077509;28;19912;-77
2022/08/22 09:06:49;;;;;;;;;;;;;;;;;;5096102;28;19912;-76
2022/08/22 09:09:20;;;;;;;;;;;;;;;;;;5095207;28;19912;-78
2022/08/22 09:11:45;;;;;;;;;;;;;;;;;;5077054;28;19992;-78
2022/08/22 09:14:13;;;;;;;;;;;;;;;;;;5095953;28;20315;-78
2022/08/22 09:16:42;;;;;;;;;;;;;;;;;;5077683;28;19970;-78
2022/08/22 09:19:31;;;;;;;;;;;;;;;;;;5097502;28;19912;-77
2022/08/22 09:21:59;;;;;;;;;;;;;;;;;;5056837;28;19912;-78
2022/08/22 09:24:36;;;;;;;;;;;;;;;;;;5095348;28;19958;-78
2022/08/22 09:27:05;;;;;;;;;;;;;;;;;;5076839;28;20042;-78
2022/08/22 09:29:46;;;;;;;;;;;;;;;;;;5076937;28;19995;-78
2022/08/22 09:32:14;;;;;;;;;;;;;;;;;;5076925;28;20019;-78
2022/08/22 09:34:55;;;;;;;;;;;;;;;;;;5076494;28;19920;-78
2022/08/22 09:37:24;;;;;;;;;;;;;;;;;;5076942;28;19912;-77
2022/08/22 09:39:58;;;;;;;;;;;;;;;;;;5094551;28;19970;-77
2022/08/22 09:42:49;;;;;;;;;;;;;;;;;;5076517;28;19920;-77
2022/08/22 09:45:21;;;;;;;;;;;;;;;;;;5076354;28;19945;-77
2022/08/22 09:48:01;;;;;;;;;;;;;;;;;;5075370;28;19920;-77
2022/08/22 09:50:34;;;;;;;;;;;;;;;;;;5076285;28;19927;-77
2022/08/22 09:53:09;;;;;;;;;;;;;;;;;;5076566;28;19916;-77
2022/08/22 09:55:38;;;;;;;;;;;;;;;;;;5060339;28;19922;-78
2022/08/22 09:58:09;;;;;;;;;;;;;;;;;;5075929;28;20290;-80
2022/08/22 10:01:00;;;;;;;;;;;;;;;;;;5094392;28;19912;-79
2022/08/22 10:03:29;;;;;;;;;;;;;;;;;;5072772;28;19969;-79
2022/08/22 10:05:59;;;;;;;;;;;;;;;;;;5094333;28;19972;-80
2022/08/22 10:08:25;;;;;;;;;;;;;;;;;;5077160;28;19916;-80
2022/08/22 10:10:51;;;;;;;;;;;;;;;;;;5094777;28;19912;-78
2022/08/22 10:13:36;;;;;;;;;;;;;;;;;;5094061;28;20054;-80
2022/08/22 10:16:04;;;;;;;;;;;;;;;;;;5094828;28;19923;-78
2022/08/22 10:18:29;;;;;;;;;;;;;;;;;;5095344;28;19923;-78
2022/08/22 10:20:59;;;;;;;;;;;;;;;;;;5095799;28;19912;-79
2022/08/22 10:23:34;;;;;;;;;;;;;;;;;;5059843;28;19999;-80
2022/08/22 10:26:22;;;;;;;;;;;;;;;;;;5096022;28;19969;-80
2022/08/22 10:28:47;;;;;;;;;;;;;;;;;;5083657;28;19916;-80
2022/08/22 10:31:33;;;;;;;;;;;;;;;;;;5094442;28;20262;-79
2022/08/22 10:34:08;;;;;;;;;;;;;;;;;;5077038;28;19912;-79
2022/08/22 10:36:43;;;;;;;;;;;;;;;;;;5093397;28;20366;-80
2022/08/22 10:39:09;;;;;;;;;;;;;;;;;;5075268;28;19928;-80
2022/08/22 10:41:35;;;;;;;;;;;;;;;;;;5075403;28;19922;-79
2022/08/22 10:44:06;;;;;;;;;;;;;;;;;;5093545;28;19999;-81
2022/08/22 10:46:35;;;;;;;;;;;;;;;;;;5093355;28;19992;-80
2022/08/22 10:49:00;;;;;;;;;;;;;;;;;;5092974;28;19963;-80
2022/08/22 10:51:26;;;;;;;;;;;;;;;;;;5075433;28;20329;-80
2022/08/22 10:53:51;;;;;;;;;;;;;;;;;;5076098;28;20010;-79
2022/08/22 10:56:21;;;;;;;;;;;;;;;;;;5076346;28;20305;-78
2022/08/22 10:58:54;;;;;;;;;;;;;;;;;;5075476;28;20332;-78
2022/08/22 11:01:21;;;;;;;;;;;;;;;;;;5076030;28;19972;-76
2022/08/22 11:03:51;;;;;;;;;;;;;;;;;;5058658;28;20309;-76
2022/08/22 11:06:28;;;;;;;;;;;;;;;;;;5075803;28;19920;-76
2022/08/22 11:08:57;;;;;;;;;;;;;;;;;;5075627;28;19916;-75
2022/08/22 11:11:25;;;;;;;;;;;;;;;;;;5075327;28;19912;-76
2022/08/22 11:13:55;;;;;;;;;;;;;;;;;;5093662;28;19922;-77
2022/08/22 11:16:29;;;;;;;;;;;;;;;;;;5093603;28;19916;-77
2022/08/22 11:19:13;;;;;;;;;;;;;;;;;;5076104;28;20010;-76
2022/08/22 11:21:47;;;;;;;;;;;;;;;;;;5094309;28;19912;-77
2022/08/22 11:24:30;;;;;;;;;;;;;;;;;;5075718;28;19912;-77
2022/08/22 11:27:11;;;;;;;;;;;;;;;;;;5093685;28;19912;-77
2022/08/22 11:29:45;;;;;;;;;;;;;;;;;;5093093;28;19984;-76
2022/08/22 11:32:15;;;;;;;;;;;;;;;;;;5093283;28;19919;-76
2022/08/22 11:34:40;;;;;;;;;;;;;;;;;;5075111;28;19995;-77
2022/08/22 11:37:21;;;;;;;;;;;;;;;;;;5074881;28;19952;-77
2022/08/22 11:39:56;;;;;;;;;;;;;;;;;;5058556;28;19921;-78
2022/08/22 11:42:40;;;;;;;;;;;;;;;;;;5058641;28;19959;-78
2022/08/22 11:45:06;;;;;;;;;;;;;;;;;;5093225;28;19915;-78
2022/08/22 11:47:32;;;;;;;;;;;;;;;;;;5075218;28;19912;-78
2022/08/22 11:50:00;;;;;;;;;;;;;;;;;;5074682;28;19943;-78
2022/08/22 11:52:25;;;;;;;;;;;;;;;;;;5075271;28;19923;-78
2022/08/22 11:54:56;;;;;;;;;;;;;;;;;;5074784;28;19912;-78
2022/08/22 11:57:25;;;;;;;;;;;;;;;;;;5074956;28;19916;-77
2022/08/22 11:59:50;;;;;;;;;;;;;;;;;;5074762;28;19973;-77
2022/08/22 12:02:41;;;;;;;;;;;;;;;;;;5093616;28;19912;-77
2022/08/22 12:05:10;;;;;;;;;;;;;;;;;;5061975;28;20345;-77
2022/08/22 12:07:39;;;;;;;;;;;;;;;;;;5058048;28;20267;-77
2022/08/22 12:10:10;;;;;;;;;;;;;;;;;;5074757;28;19922;-77
2022/08/22 12:12:36;;;;;;;;;;;;;;;;;;5078126;28;20022;-78
2022/08/22 12:15:12;;;;;;;;;;;;;;;;;;5097220;28;20343;-77
2022/08/22 12:17:44;;;;;;;;;;;;;;;;;;5078469;28;19923;-77
2022/08/22 12:20:12;;;;;;;;;;;;;;;;;;5096242;28;19923;-78
2022/08/22 12:22:46;;;;;;;;;;;;;;;;;;5096651;28;20363;-77
2022/08/22 12:25:16;;;;;;;;;;;;;;;;;;5096937;28;20367;-78
2022/08/22 12:27:54;;;;;;;;;;;;;;;;;;5078811;28;19999;-78
2022/08/22 12:30:20;;;;;;;;;;;;;;;;;;5078425;28;19954;-77
2022/08/22 12:32:47;;;;;;;;;;;;;;;;;;5078362;28;19912;-78
2022/08/22 12:35:16;;;;;;;;;;;;;;;;;;5096200;28;19912;-78
2022/08/22 12:37:47;;;;;;;;;;;;;;;;;;5096369;28;19951;-77
2022/08/22 12:40:25;;;;;;;;;;;;;;;;;;5078357;28;20298;-78
2022/08/22 12:43:08;;;;;;;;;;;;;;;;;;5077931;28;19923;-77
2022/08/22 12:45:34;;;;;;;;;;;;;;;;;;5077991;28;19927;-77
2022/08/22 12:47:59;;;;;;;;;;;;;;;;;;5096309;28;19916;-77
2022/08/22 12:50:27;;;;;;;;;;;;;;;;;;5077998;28;19927;-77
2022/08/22 12:53:11;;;;;;;;;;;;;;;;;;5077480;28;20298;-77
2022/08/22 12:55:54;;;;;;;;;;;;;;;;;;5077641;28;19912;-77
2022/08/22 12:58:25;;;;;;;;;;;;;;;;;;5096066;28;19916;-78
2022/08/22 13:00:51;;;;;;;;;;;;;;;;;;5095960;28;19912;-77
2022/08/22 13:03:22;;;;;;;;;;;;;;;;;;5077411;28;19955;-77
2022/08/22 13:05:48;;;;;;;;;;;;;;;;;;5095749;28;19912;-77
2022/08/22 13:08:15;;;;;;;;;;;;;;;;;;5095551;28;20013;-77
2022/08/22 13:10:47;;;;;;;;;;;;;;;;;;5077526;28;19919;-77
2022/08/22 13:13:14;;;;;;;;;;;;;;;;;;5077332;28;19919;-78
2022/08/22 13:15:43;;;;;;;;;;;;;;;;;;5077237;28;20480;-77
2022/08/22 13:18:12;;;;;;;;;;;;;;;;;;5076799;28;19912;-77
2022/08/22 13:20:40;;;;;;;;;;;;;;;;;;5076936;28;19912;-78
2022/08/22 13:23:11;;;;;;;;;;;;;;;;;;5060113;28;19998;-78
2022/08/22 13:25:55;;;;;;;;;;;;;;;;;;5078100;28;20373;-78
2022/08/22 13:28:20;;;;;;;;;;;;;;;;;;5096361;28;19916;-78
2022/08/22 13:30:48;;;;;;;;;;;;;;;;;;5078260;28;19912;-78
2022/08/22 13:33:14;;;;;;;;;;;;;;;;;;5076764;28;19916;-77
2022/08/22 13:35:50;;;;;;;;;;;;;;;;;;5059841;28;19950;-78
2022/08/22 13:38:23;;;;;;;;;;;;;;;;;;5076646;28;19975;-78
2022/08/22 13:40:49;;;;;;;;;;;;;;;;;;5076592;28;19942;-78
2022/08/22 13:43:19;;;;;;;;;;;;;;;;;;5059726;28;19916;-77
2022/08/22 13:45:49;;;;;;;;;;;;;;;;;;5059510;28;19916;-77
2022/08/22 13:48:14;;;;;;;;;;;;;;;;;;5076208;28;19942;-77
2022/08/22 13:51:03;;;;;;;;;;;;;;;;;;5095244;28;20395;-76
2022/08/22 13:53:42;;;;;;;;;;;;;;;;;;5049039;28;19912;-77
2022/08/22 13:56:12;;;;;;;;;;;;;;;;;;5077867;28;20397;-77
2022/08/22 13:58:38;;;;;;;;;;;;;;;;;;5077911;28;19912;-78
2022/08/22 14:01:10;;;;;;;;;;;;;;;;;;5060926;28;19919;-77
2022/08/22 14:03:38;;;;;;;;;;;;;;;;;;5076597;28;20361;-78
2022/08/22 14:06:07;;;;;;;;;;;;;;;;;;5094984;28;19913;-77
2022/08/22 14:08:33;;;;;;;;;;;;;;;;;;5076206;28;19916;-78
2022/08/22 14:10:59;;;;;;;;;;;;;;;;;;5076614;28;19912;-78
2022/08/22 14:13:38;;;;;;;;;;;;;;;;;;5094692;28;19938;-78
2022/08/22 14:16:09;;;;;;;;;;;;;;;;;;5094420;28;19924;-77
2022/08/22 14:18:36;;;;;;;;;;;;;;;;;;5094913;28;19916;-78
2022/08/22 14:21:16;;;;;;;;;;;;;;;;;;5076454;28;19916;-77
2022/08/22 14:23:41;;;;;;;;;;;;;;;;;;5076297;28;19912;-77
2022/08/22 14:26:09;;;;;;;;;;;;;;;;;;5094562;28;19916;-78
2022/08/22 14:28:34;;;;;;;;;;;;;;;;;;5076685;28;19927;-77
2022/08/22 14:31:02;;;;;;;;;;;;;;;;;;5076374;28;19916;-77
2022/08/22 14:33:32;;;;;;;;;;;;;;;;;;5075832;28;19947;-78
2022/08/22 14:35:58;;;;;;;;;;;;;;;;;;5076409;28;19912;-78
2022/08/22 14:38:39;;;;;;;;;;;;;;;;;;5058968;28;19918;-78
2022/08/22 14:41:06;;;;;;;;;;;;;;;;;;5076060;28;20045;-77
2022/08/22 14:43:32;;;;;;;;;;;;;;;;;;5076401;28;19923;-78
2022/08/22 14:46:02;;;;;;;;;;;;;;;;;;5093540;28;19916;-79
2022/08/22 14:48:28;;;;;;;;;;;;;;;;;;5075752;28;19917;-81
2022/08/22 14:50:58;;;;;;;;;;;;;;;;;;5041424;28;19921;-79
2022/08/22 14:53:27;;;;;;;;;;;;;;;;;;5040998;28;19912;-80
2022/08/22 14:55:57;;;;;;;;;;;;;;;;;;5057015;28;20340;-79
2022/08/22 14:58:24;;;;;;;;;;;;;;;;;;5039745;28;19913;-79
2022/08/22 15:00:50;;;;;;;;;;;;;;;;;;5040211;28;20290;-79
2022/08/22 15:03:23;;;;;;;;;;;;;;;;;;5039914;28;19913;-79
2022/08/22 15:05:50;;;;;;;;;;;;;;;;;;5056958;28;19931;-79
2022/08/22 15:08:27;;;;;;;;;;;;;;;;;;5038049;28;20023;-80
2022/08/22 15:11:03;;;;;;;;;;;;;;;;;;5055417;28;19920;-80
2022/08/22 15:13:28;;;;;;;;;;;;;;;;;;5038193;28;19916;-79
2022/08/22 15:15:54;;;;;;;;;;;;;;;;;;5055242;28;19923;-80
2022/08/22 15:18:32;;;;;;;;;;;;;;;;;;5073876;28;20444;-80
2022/08/22 15:21:05;;;;;;;;;;;;;;;;;;5055656;28;20421;-80
2022/08/22 15:23:30;;;;;;;;;;;;;;;;;;5039742;28;19912;-81
2022/08/22 15:25:58;;;;;;;;;;;;;;;;;;5056473;28;19966;-80
2022/08/22 15:28:23;;;;;;;;;;;;;;;;;;5055818;28;19916;-80
2022/08/22 15:30:48;;;;;;;;;;;;;;;;;;5056041;28;19926;-79
2022/08/22 15:33:23;;;;;;;;;;;;;;;;;;5055976;28;20359;-80
2022/08/22 15:35:49;;;;;;;;;;;;;;;;;;5073858;28;19912;-79
2022/08/22 15:38:25;;;;;;;;;;;;;;;;;;5038084;28;19913;-79
2022/08/22 15:40:51;;;;;;;;;;;;;;;;;;5055077;28;19992;-79
2022/08/22 15:43:26;;;;;;;;;;;;;;;;;;5054645;28;20000;-79
2022/08/22 15:46:07;;;;;;;;;;;;;;;;;;5057847;28;19916;-80
2022/08/22 15:48:35;;;;;;;;;;;;;;;;;;5042489;28;19916;-82
2022/08/22 15:51:03;;;;;;;;;;;;;;;;;;5076613;28;19993;-79
2022/08/22 15:53:28;;;;;;;;;;;;;;;;;;5061688;28;19935;-81
2022/08/22 15:55:59;;;;;;;;;;;;;;;;;;5096858;28;20359;-81
2022/08/22 15:58:25;;;;;;;;;;;;;;;;;;5096460;28;19912;-81
2022/08/22 16:01:04;;;;;;;;;;;;;;;;;;5078663;28;19922;-81
2022/08/22 16:03:30;;;;;;;;;;;;;;;;;;5078351;28;19934;-81
2022/08/22 16:05:57;;;;;;;;;;;;;;;;;;5081284;28;19951;-80
2022/08/22 16:08:22;;;;;;;;;;;;;;;;;;5079989;28;19916;-78
2022/08/22 16:10:50;;;;;;;;;;;;;;;;;;5080402;28;19962;-79
2022/08/22 16:13:15;;;;;;;;;;;;;;;;;;5061776;28;20313;-79
2022/08/22 16:15:47;;;;;;;;;;;;;;;;;;5097911;28;19912;-79
2022/08/22 16:18:31;;;;;;;;;;;;;;;;;;5096972;28;19912;-82
2022/08/22 16:20:56;;;;;;;;;;;;;;;;;;5077891;28;20413;-79
2022/08/22 16:23:21;;;;;;;;;;;;;;;;;;5096144;28;19917;-79
2022/08/22 16:25:46;;;;;;;;;;;;;;;;;;5061038;28;19991;-80
2022/08/22 16:28:31;;;;;;;;;;;;;;;;;;5077704;28;19923;-82
2022/08/22 16:30:56;;;;;;;;;;;;;;;;;;5078176;28;20335;-80
2022/08/22 16:33:35;;;;;;;;;;;;;;;;;;5095988;28;19916;-80
2022/08/22 16:36:16;;;;;;;;;;;;;;;;;;5077953;28;19912;-80
2022/08/22 16:38:48;;;;;;;;;;;;;;;;;;5077205;28;19912;-79
2022/08/22 16:41:28;;;;;;;;;;;;;;;;;;5060394;28;20359;-79
2022/08/22 16:44:11;;;;;;;;;;;;;;;;;;5060546;28;19924;-79
2022/08/22 16:46:38;;;;;;;;;;;;;;;;;;5095836;28;19924;-79
2022/08/22 16:49:03;;;;;;;;;;;;;;;;;;5060505;28;19922;-79
2022/08/22 16:51:28;;;;;;;;;;;;;;;;;;5096614;28;19912;-80
2022/08/22 16:54:02;;;;;;;;;;;;;;;;;;5081270;28;19912;-79
2022/08/22 16:56:34;;;;;;;;;;;;;;;;;;5097527;28;19912;-79
2022/08/22 16:59:03;;;;;;;;;;;;;;;;;;5063507;28;19916;-79
2022/08/22 17:01:44;;;;;;;;;;;;;;;;;;5079851;28;20378;-79
2022/08/22 17:04:18;;;;;;;;;;;;;;;;;;5078504;28;19912;-79
2022/08/22 17:07:22;;;;;;;;;;;;;;;;;;5096935;28;20241;-79
2022/08/22 17:09:48;;;;;;;;;;;;;;;;;;5014432;28;19913;-79
2022/08/22 17:12:25;;;;;;;;;;;;;;;;;;4997847;28;19967;-79
2022/08/22 17:14:53;;;;;;;;;;;;;;;;;;5041443;28;19963;-79
2022/08/22 17:17:34;;;;;;;;;;;;;;;;;;5077338;28;19961;-78